Aeroporto :
LOGIN :

Iscrizione | Disclaimer

   EN    FR    IT 

 










Sommario :    VFR   VFR Marginale   IFR   IFR Intensivo   IFR Molto Intensivo
Visibilità : 
Base nubi : 
>= 8 km
>= 3000ft
5 / 8 km
1000 / 3000 ft
1500m / 5 km
500 / 1000 ft
800 / 1500m
200 / 500 ft
< 800m
< 200 ft
Simboli :   Temporali  Nebbia  Neve Forte  Precipitazioni Forti  Vento > 20 kt
SIGMETs :   Varie  Temporali  Ghiacco  Turbolenza  Onda orograficha  Ceneri Vulcaniche






- Altitudine del aeroporto : 459 ft
- Codice IATA : CER


LFRC - Cherbourg / Maupertus

ULTIMO METAR :
  • 250830Z AUTO 03007KT 350V060 CAVOK 17/14 Q1016 NOSIG

METARs OBSOLETI :
  • 250800Z AUTO 02007KT 350V050 CAVOK 18/15 Q1016 NOSIG
  • 250730Z AUTO 01007KT 340V040 CAVOK 17/14 Q1016 NOSIG
  • 250700Z AUTO 01006KT CAVOK 16/15 Q1016 NOSIG
  • 250630Z AUTO 01006KT 350V050 CAVOK 15/15 Q1016 TEMPO 0250 FG VV///
  • 250600Z AUTO 01006KT 8000 FEW001 BKN064 15/15 Q1016 TEMPO 0250 FG VV///
  • 250530Z AUTO 35004KT 320V030 1500 0400 R28/1900D BCFG VV/// 14/14 Q1016 TEMPO 0250 FG
  • 250500Z AUTO 34004KT 0250 0200 R28/0250N FG VV/// 14/14 Q1016
  • 250430Z AUTO 35004KT 0200 R28/0225N FG VV/// 14/14 Q1016
  • 250400Z AUTO 01004KT 320V040 0900 R28/1200U FG VV/// 12/12 Q1016

TAF AMD TAF LFRC
Valido dal 25 a 06 ore il 25 a 15 ore UTC


250616Z 2506/2515 VRB04KT CAVOK
BECMG 2508/2510 02010KT



MetMap, La meteo Aeronautica in un colpo d'occhio ! - Copyright ORBIFLY Dicembre 2007 - Disclaimer

ORBIFLY MET'MAP TEAM :

Programmazione e sviluppo : Alexandra Zaïnal
Concezione : Baudouin d'Aumeries
Supporto tecnico e logistico : Manuel Goepfert
Aiuto : Marc-Olivier Méhu
Aiuto per la traduzione : Arnaldo La Scala




FONTI E CREDITI :

   NOAA